• Join FlightAware (Why Join?)
  • Login
  • US Flag 
12:30PM EST


 

Airport Tracker/Info


-or-


 

Live Flight TrackerFlight Track Log ✈ C-FHNX ✈ 20-Apr-2013 ✈ KLAX - CYVR

Flight Track Log - Related Links

Times and Time Zones

All times are in EDT time to prevent confusion due to time zone crossing. See the C-FHNX flight status page for this flight to view local times or setup timezone preferences in your user account.

Time Position Orientation Groundspeed Altitude Reporting Facility
EDT Latitude Longitude Course Direction KTS MPH feet Rate Location/Type
09:27PM 33.9442 -118.4622 267° West 150 173 1,800  Level Los Angeles Center
09:28PM 33.9411 -118.5289 267° West 205 236 3,200 1,620 Climbing Los Angeles Center
09:29PM 33.9347 -118.6119 265° West 261 300 5,200 2,340 Climbing Los Angeles Center
09:30PM 33.9800 -118.6831 308° West 283 326 8,000 1,800 Climbing Los Angeles Center
09:31PM 34.0619 -118.6756 North 286 329 9,000 1,560 Climbing Los Angeles Center
09:32PM 34.1386 -118.6428 19° North 283 326 11,200 1,800 Climbing Los Angeles Center
09:33PM 34.2208 -118.6433 360° North 307 353 12,700 1,800 Climbing Los Angeles Center
09:34PM 34.3156 -118.6678 348° North 343 395 15,000 2,280 Climbing Los Angeles Center
09:35PM 34.4131 -118.6936 348° North 356 410 17,400 2,160 Climbing Los Angeles Center
09:37PM 34.5114 -118.7203 347° North 362 417 19,500 1,980 Climbing Los Angeles Center
09:38PM 34.6094 -118.7617 341° North 374 430 21,500 1,800 Climbing Los Angeles Center
09:39PM 34.7064 -118.8128 337° Northwest 381 438 23,200 1,560 Climbing Los Angeles Center
09:40PM 34.8069 -118.8622 338° Northwest 389 448 24,700 1,440 Climbing Los Angeles Center
09:41PM 34.9286 -118.8883 350° North 404 465 26,200 1,140 Climbing Los Angeles Center
09:42PM 35.0417 -118.9128 350° North 411 473 27,100 900 Climbing Los Angeles Center
09:43PM 35.1586 -118.9372 350° North 424 488 28,100 1,020 Climbing Los Angeles Center
09:44PM 35.2778 -118.9614 351° North 432 497 29,200 900 Climbing Los Angeles Center
09:45PM 35.3961 -118.9858 350° North 433 498 30,000 360 Climbing Los Angeles Center
09:46PM 35.5356 -119.0164 350° North 428 493 30,000  Level Los Angeles Center
09:47PM 35.6272 -119.0361 350° North 431 496 30,000  Level Oakland Center
09:48PM 35.7464 -119.0619 350° North 436 502 30,000  Level Oakland Center
09:49PM 35.8656 -119.0883 350° North 436 502 30,000  Level Oakland Center
09:50PM 35.9833 -119.1139 350° North 434 499 30,000  Level Oakland Center
09:51PM 36.1019 -119.1392 350° North 434 499 30,000  Level Oakland Center
09:52PM 36.2183 -119.1656 350° North 429 494 30,000  Level Oakland Center
09:53PM 36.3328 -119.1892 351° North 422 486 30,000  Level Oakland Center
09:54PM 36.4678 -119.2203 350° North 411 473 30,000  Level Oakland Center
09:55PM 36.5789 -119.2433 351° North 406 467 30,000  Level Oakland Center
09:56PM 36.6917 -119.2692 350° North 412 474 30,000  Level Oakland Center
09:57PM 36.8033 -119.2936 350° North 408 470 30,000  Level Oakland Center
09:58PM 36.9161 -119.3194 350° North 411 473 30,000  Level Oakland Center
09:59PM 37.0275 -119.3450 350° North 413 475 30,000  Level Oakland Center
10:00PM 37.1386 -119.3717 349° North 407 468 30,000  Level Oakland Center
10:01PM 37.2506 -119.3967 350° North 408 470 30,000  Level Oakland Center
10:02PM 37.3614 -119.4214 350° North 406 467 30,000  Level Oakland Center
10:03PM 37.4719 -119.4478 349° North 407 468 30,000  Level Oakland Center
10:04PM 37.5956 -119.4756 350° North 411 473 30,000  Level Oakland Center
10:05PM 37.7117 -119.4956 352° North 404 465 30,000  Level Oakland Center
10:06PM 37.8222 -119.5211 350° North 407 468 30,000  Level Oakland Center
10:07PM 37.9333 -119.5469 350° North 405 466 30,000  Level Oakland Center
10:08PM 38.0458 -119.5714 350° North 410 472 30,000  Level Oakland Center
10:09PM 38.1556 -119.5972 350° North 405 466 30,000  Level Oakland Center
10:10PM 38.2625 -119.6242 349° North 399 459 30,000  Level Oakland Center
10:11PM 38.3731 -119.6481 350° North 403 464 30,000  Level Oakland Center
10:12PM 38.4928 -119.6764 350° North 405 466 30,000  Level Oakland Center
10:13PM 38.6028 -119.7025 349° North 404 465 30,000  Level Oakland Center
10:14PM 38.7139 -119.7289 350° North 403 464 30,000  Level Oakland Center
10:15PM 38.8236 -119.7544 350° North 400 460 30,000  Level Oakland Center
10:16PM 38.9333 -119.7794 350° North 399 459 30,000  Level Oakland Center
10:17PM 39.0422 -119.8058 349° North 397 457 30,000  Level Oakland Center
10:18PM 39.1525 -119.8314 350° North 400 460 30,000  Level Oakland Center
10:19PM 39.2611 -119.8567 350° North 397 457 30,000  Level Oakland Center
10:20PM 39.3728 -119.8839 349° North 402 463 30,000  Level Oakland Center
10:21PM 39.4814 -119.9094 350° North 398 458 30,000  Level Oakland Center
10:22PM 39.5894 -119.9358 349° North 396 456 30,000  Level Oakland Center
10:23PM 39.6986 -119.9614 350° North 396 456 30,000  Level Oakland Center
10:24PM 39.8067 -119.9894 349° North 394 453 30,000  Level Oakland Center
10:25PM 39.9150 -120.0139 350° North 393 452 30,000  Level Oakland Center
10:26PM 40.0214 -120.0411 349° North 390 449 30,000  Level Oakland Center
10:27PM 40.1500 -120.0728 349° North 389 448 30,000  Level Oakland Center
10:28PM 40.2567 -120.0986 350° North 389 448 30,000  Level Oakland Center
10:29PM 40.3644 -120.1244 350° North 389 448 30,000  Level Oakland Center
10:30PM 40.4722 -120.1511 349° North 394 453 30,000  Level Oakland Center
10:31PM 40.5686 -120.1747 349° North 390 449 30,000  Level Oakland Center
10:32PM 40.6781 -120.2000 350° North 397 457 30,000  Level Oakland Center
10:33PM 40.7214 -120.2131 347° North 393 452 30,000  Level Seattle Center
10:34PM 40.8278 -120.2406 349° North 392 451 30,000  Level Seattle Center
10:34PM 40.8897 -120.2564 349° North 387 445 30,000  Level Oakland Center
10:35PM 40.9333 -120.2672 349° North 388 447 30,000  Level Seattle Center
10:36PM 41.0386 -120.2928 350° North 384 442 30,000  Level Seattle Center
10:37PM 41.1439 -120.3200 349° North 384 442 30,000  Level Seattle Center
10:38PM 41.2492 -120.3483 349° North 386 444 30,000  Level Seattle Center
10:39PM 41.3544 -120.3739 350° North 385 443 30,000  Level Seattle Center
10:40PM 41.4625 -120.3983 350° North 391 450 30,000  Level Seattle Center
10:41PM 41.5672 -120.4258 349° North 386 444 30,000  Level Seattle Center
10:42PM 41.6714 -120.4531 349° North 383 441 30,000  Level Seattle Center
10:43PM 41.7739 -120.4806 349° North 378 435 30,000  Level Seattle Center
10:44PM 41.8797 -120.5072 349° North 386 444 30,000  Level Seattle Center
10:45PM 41.9847 -120.5353 349° North 387 445 30,000  Level Seattle Center
10:46PM 42.0922 -120.5603 350° North 392 451 30,000  Level Seattle Center
10:47PM 42.1989 -120.5897 348° North 393 452 30,000  Level Seattle Center
10:48PM 42.3050 -120.6167 349° North 392 451 30,000  Level Seattle Center
10:49PM 42.4117 -120.6439 349° North 393 452 30,000  Level Seattle Center
10:50PM 42.5394 -120.6775 349° North 392 451 30,000  Level Seattle Center
10:51PM 42.6458 -120.7061 349° North 392 451 30,000  Level Seattle Center
10:52PM 42.7528 -120.7350 349° North 393 452 30,000  Level Seattle Center
10:53PM 42.8589 -120.7644 349° North 391 450 30,000  Level Seattle Center
10:54PM 42.9667 -120.7936 349° North 393 452 30,000  Level Seattle Center
10:55PM 43.0722 -120.8225 349° North 391 450 30,000  Level Seattle Center
10:56PM 43.1794 -120.8517 349° North 393 452 30,000  Level Seattle Center
10:57PM 43.2853 -120.8808 349° North 391 450 30,000  Level Seattle Center
10:58PM 43.3911 -120.9092 349° North 389 448 30,000  Level Seattle Center
10:59PM 43.4975 -120.9392 348° North 390 449 30,000  Level Seattle Center
11:00PM 43.6075 -120.9692 349° North 387 445 30,000  Level Seattle Center
11:01PM 43.7119 -120.9983 349° North 384 442 30,000  Level Seattle Center
11:02PM 43.8164 -121.0294 348° North 384 442 30,000  Level Seattle Center
11:03PM 43.9206 -121.0581 349° North 382 440 30,000  Level Seattle Center
11:04PM 44.0256 -121.0886 348° North 384 442 30,000  Level Seattle Center
11:05PM 44.1306 -121.1194 348° North 385 443 30,000  Level Seattle Center
11:06PM 44.2350 -121.1489 349° North 383 441 30,000  Level Seattle Center
11:07PM 44.3394 -121.1794 348° North 383 441 30,000  Level Seattle Center
11:08PM 44.4592 -121.2133 349° North 382 440 30,000  Level Seattle Center
11:09PM 44.5633 -121.2436 348° North 381 438 30,000  Level Seattle Center
11:10PM 44.6519 -121.2686 349° North 383 441 30,000  Level Seattle Center
11:11PM 44.7572 -121.3000 348° North 384 442 30,000  Level Seattle Center
11:12PM 44.8600 -121.3306 348° North 378 435 30,000  Level Seattle Center
11:13PM 44.9647 -121.3594 349° North 381 438 30,000  Level Seattle Center
11:14PM 45.0675 -121.3903 348° North 378 435 30,000  Level Seattle Center
11:15PM 45.1711 -121.4203 348° North 379 436 30,000  Level Seattle Center
11:16PM 45.2950 -121.4572 348° North 380 437 30,000  Level Seattle Center
11:17PM 45.3992 -121.4883 348° North 382 440 30,000  Level Seattle Center
11:18PM 45.5025 -121.5189 348° North 380 437 30,000  Level Seattle Center
11:19PM 45.6067 -121.5511 348° North 382 440 30,000  Level Seattle Center
11:20PM 45.7111 -121.5808 349° North 385 443 30,000  Level Seattle Center
11:21PM 45.8128 -121.6128 348° North 376 433 30,000  Level Seattle Center
11:22PM 45.9156 -121.6436 348° North 377 434 30,000  Level Seattle Center
11:23PM 46.0192 -121.6767 348° North 381 438 30,000  Level Seattle Center
11:24PM 46.1225 -121.7058 349° North 378 435 30,000  Level Seattle Center
11:25PM 46.2306 -121.7408 347° North 379 436 30,000  Level Seattle Center
11:26PM 46.3172 -121.7661 349° North 375 432 30,000  Level Seattle Center
11:27PM 46.4192 -121.7997 347° North 378 435 30,000  Level Seattle Center
11:28PM 46.5411 -121.8369 348° North 376 433 30,000  Level Seattle Center
11:29PM 46.6417 -121.8683 348° North 372 428 30,000  Level Seattle Center
11:30PM 46.7428 -121.9003 348° North 374 430 30,000  Level Seattle Center
11:31PM 46.8439 -121.9311 348° North 373 429 30,000  Level Seattle Center
11:32PM 46.9436 -121.9622 348° North 371 427 30,000  Level Seattle Center
11:33PM 47.0433 -121.9961 347° North 371 427 30,000  Level Seattle Center
11:34PM 47.1431 -122.0269 348° North 369 425 30,000  Level Seattle Center
11:35PM 47.2433 -122.0606 347° North 372 428 30,000  Level Seattle Center
11:36PM 47.3422 -122.0931 347° North 371 427 30,000  Level Seattle Center
11:37PM 47.4417 -122.1242 348° North 370 426 30,000  Level Seattle Center
11:38PM 47.5603 -122.1619 348° North 371 427 30,000  Level Seattle Center
11:39PM 47.6581 -122.1936 348° North 370 426 30,000  Level Seattle Center
11:40PM 47.7550 -122.2256 348° North 369 425 30,000  Level Seattle Center
11:41PM 47.8536 -122.2572 348° North 371 427 30,000  Level Seattle Center
11:42PM 47.9533 -122.2897 348° North 372 428 30,000 -1,080 Level Seattle Center
11:43PM 48.0539 -122.3183 349° North 374 430 27,900 -2,280 Descending Seattle Center
11:44PM 48.1506 -122.3453 349° North 364 419 25,500 -2,340 Descending Seattle Center
11:45PM 48.2431 -122.3725 349° North 346 398 23,200 -2,580 Descending Seattle Center
11:46PM 48.3564 -122.4050 349° North 347 399 20,300 -2,700 Descending Seattle Center
11:47PM 48.4475 -122.4322 349° North 343 395 17,800 -2,340 Descending Seattle Center
11:48PM 48.5375 -122.4575 349° North 337 388 15,600 -2,460 Descending Seattle Center
11:49PM 48.6233 -122.4836 349° North 327 376 12,900 -1,800 Descending Seattle Center
11:50PM 48.7086 -122.5100 348° North 320 368 12,000 -480 Descending Seattle Center
11:51PM 48.7458 -122.6097 300° West 287 330 12,000 -360 Level Seattle Center
11:52PM 48.7917 -122.6964 309° West 270 311 11,300 -780 Descending Seattle Center
11:53PM 48.8392 -122.7775 312° West 264 304 10,500 -900 Descending Seattle Center
11:54PM 48.8833 -122.8667 307° West 260 299 9,500 -900 Descending Vancouver Center
11:55PM 48.9167 -122.9667 297° West 260 299 8,700 -900 Descending Vancouver Center
11:56PM 48.9667 -123.0167 327° Northwest 240 276 7,700 -1,140 Descending Vancouver Center
11:57PM 49.0333 -122.9833 18° North 230 265 6,500 -1,200 Descending Vancouver Center
11:58PM 49.0500 -122.8833 76° East 250 288 5,300 -1,020 Descending Vancouver Center
11:59PM 49.1000 -122.8333 33° Northeast 230 265 4,500 -900 Descending Vancouver Center
12:00AM 49.1500 -122.8833 327° Northwest 200 230 3,500 -960 Descending Vancouver Center
12:01AM 49.1667 -122.9500 291° West 190 219 2,600 -900 Descending Vancouver Center